LIMZ/CUF METAR and TAF weather

Enter ICAO airport designator
Station Type Date Time Source
LIMZ METAR 2021/07/30 22:20 UTC NOAA

LIMZ 302220Z AUTO 30003KT 270V340 9999 BKN041/// 22/19 Q1012


Station Type Date Time Source
LIMZ Decoded METAR 2021/07/30 22:20 UTC NOAA

Cuneo / Levaldigi, Italy (LIMZ) 44-32-47N 007-37-20E
Jul 30, 2021 - 06:20 PM EDT / 2021.07.30 2220 UTC
Wind: from the WNW (300 degrees) at 3 MPH (3 KT) (direction variable):0
Visibility: greater than 7 mile(s):0
Sky conditions: mostly cloudy
Temperature: 71 F (22 C)
Dew Point: 66 F (19 C)
Relative Humidity: 83%
Pressure (altimeter): 29.88 in. Hg (1012 hPa)
ob: LIMZ 302220Z AUTO 30003KT 270V340 9999 BKN041/// 22/19 Q1012
cycle: 22

Station Type Date Time Source
LIMZ TAF 2021/07/30 18:21 UTC NOAA

TAF LIMZ 301700Z 3018/3118 VRB05KT 9999 FEW030
TEMPO 3115/3118 TSRA

Example: see airport list